Time;durP1;ratioP1;P1;durP2;ratioP2;P2;SDS_P1;SDS_P2;PMS_P1;PMS_P2;Temp;Humidity;BMP_temperature;BMP_pressure;BME280_temperature;BME280_humidity;BME280_pressure;Samples;Min_cycle;Max_cycle;Signal;HPM_P1;HPM_P2
2023/06/22 00:00:50;;;;;;;12.97;12.47;;;22.20;99.90;;;;;;5034579;28;20489;-66
2023/06/22 00:03:19;;;;;;;13.23;12.73;;;22.10;99.90;;;;;;5046043;28;20472;-67
2023/06/22 00:05:46;;;;;;;12.80;12.30;;;22.10;99.90;;;;;;5035759;28;20486;-65
2023/06/22 00:08:13;;;;;;;13.73;13.10;;;22.10;99.90;;;;;;5046156;28;20954;-67
2023/06/22 00:10:40;;;;;;;12.67;12.17;;;22.10;99.90;;;;;;5041088;28;20463;-67
2023/06/22 00:13:10;;;;;;;12.50;12.00;;;22.00;99.90;;;;;;5033413;28;20471;-66
2023/06/22 00:15:38;;;;;;;12.53;12.03;;;21.90;99.90;;;;;;5044161;28;20483;-67
2023/06/22 00:18:05;;;;;;;16.93;13.63;;;21.80;99.90;;;;;;5048287;28;20467;-66
2023/06/22 00:20:36;;;;;;;12.47;11.97;;;21.80;99.90;;;;;;5036106;28;20468;-67
2023/06/22 00:23:08;;;;;;;12.97;12.47;;;21.80;99.90;;;;;;5034951;28;20835;-66
2023/06/22 00:25:35;;;;;;;13.90;13.30;;;21.80;99.90;;;;;;5035195;28;20583;-66
2023/06/22 00:28:02;;;;;;;12.57;11.97;;;21.70;99.90;;;;;;5043983;28;20985;-67
2023/06/22 00:30:32;;;;;;;13.40;12.80;;;21.70;99.90;;;;;;5044194;28;20480;-67
2023/06/22 00:32:59;;;;;;;14.00;13.20;;;21.70;99.90;;;;;;5041021;28;21017;-67
2023/06/22 00:35:28;;;;;;;12.93;12.43;;;21.70;99.90;;;;;;5047348;28;20467;-67
2023/06/22 00:38:00;;;;;;;13.87;13.10;;;21.70;99.90;;;;;;5035770;28;20470;-66
2023/06/22 00:40:27;;;;;;;12.67;12.17;;;21.60;99.90;;;;;;5041869;28;20464;-66
2023/06/22 00:42:55;;;;;;;11.87;11.47;;;21.60;99.90;;;;;;5038689;28;20492;-66
2023/06/22 00:45:23;;;;;;;13.20;12.60;;;21.60;99.90;;;;;;5041238;28;20555;-66
2023/06/22 00:47:51;;;;;;;12.20;11.70;;;21.60;99.90;;;;;;5034063;28;20578;-67
2023/06/22 00:50:20;;;;;;;12.23;11.73;;;21.50;99.90;;;;;;5039187;28;20467;-67
2023/06/22 00:52:51;;;;;;;12.30;11.80;;;21.40;99.90;;;;;;5038343;28;20514;-67
2023/06/22 00:55:19;;;;;;;12.40;11.90;;;21.40;99.90;;;;;;5045616;28;20468;-67
2023/06/22 00:57:47;;;;;;;13.70;13.00;;;21.40;99.90;;;;;;5038601;28;20464;-67
2023/06/22 01:00:16;;;;;;;11.97;11.57;;;21.30;99.90;;;;;;5045448;28;20456;-67
2023/06/22 01:02:46;;;;;;;13.33;12.73;;;21.40;99.90;;;;;;5028599;28;20461;-66
2023/06/22 01:05:15;;;;;;;13.03;12.13;;;21.40;99.90;;;;;;5034103;28;20535;-66
2023/06/22 01:07:54;;;;;;;13.17;11.97;;;21.30;99.90;;;;;;5041882;28;20575;-66
2023/06/22 01:10:28;;;;;;;14.57;13.20;;;21.20;99.90;;;;;;5041126;28;21109;-67
2023/06/22 01:12:59;;;;;;;13.47;12.87;;;21.20;99.90;;;;;;5038045;28;20490;-67
2023/06/22 01:15:31;;;;;;;11.73;11.23;;;21.20;99.90;;;;;;5038686;28;20496;-68
2023/06/22 01:18:00;;;;;;;12.07;11.57;;;21.20;99.90;;;;;;5046376;28;20494;-67
2023/06/22 01:20:30;;;;;;;11.50;11.10;;;21.10;99.90;;;;;;5039053;28;20463;-66
2023/06/22 01:23:08;;;;;;;11.70;11.30;;;21.10;99.90;;;;;;5040297;28;20513;-67
2023/06/22 01:25:45;;;;;;;11.07;10.67;;;21.00;99.90;;;;;;5041978;28;20465;-67
2023/06/22 01:28:25;;;;;;;11.50;11.10;;;21.00;99.90;;;;;;5036169;28;20499;-66
2023/06/22 01:31:03;;;;;;;12.00;11.50;;;21.00;99.90;;;;;;5037590;28;20940;-68
2023/06/22 01:33:32;;;;;;;12.13;11.63;;;21.00;99.90;;;;;;5032261;28;20463;-66
2023/06/22 01:35:59;;;;;;;11.50;11.10;;;21.00;99.90;;;;;;5035283;28;20552;-66
2023/06/22 01:38:26;;;;;;;13.17;12.50;;;21.00;99.90;;;;;;5039042;28;20810;-67
2023/06/22 01:40:55;;;;;;;11.80;11.40;;;20.90;99.90;;;;;;5046003;28;20466;-67
2023/06/22 01:43:22;;;;;;;11.60;11.20;;;20.90;99.90;;;;;;5033379;28;21013;-67
2023/06/22 01:45:49;;;;;;;12.07;11.57;;;20.90;99.90;;;;;;5040673;28;20996;-68
2023/06/22 01:48:18;;;;;;;11.30;10.90;;;21.00;99.90;;;;;;5037056;28;20547;-68
2023/06/22 01:50:46;;;;;;;12.17;11.67;;;21.00;99.90;;;;;;5028618;28;20780;-67
2023/06/22 01:53:13;;;;;;;12.30;11.80;;;21.00;99.90;;;;;;5032348;28;20473;-67
2023/06/22 01:55:40;;;;;;;14.37;13.73;;;21.00;99.90;;;;;;5043506;28;20530;-68
2023/06/22 01:58:07;;;;;;;11.20;10.80;;;21.00;99.90;;;;;;5039258;28;20497;-67
2023/06/22 02:00:39;;;;;;;11.60;11.20;;;21.00;99.90;;;;;;5036286;28;20463;-66
2023/06/22 02:03:11;;;;;;;11.60;11.20;;;21.00;99.90;;;;;;5039294;28;20476;-65
2023/06/22 02:05:48;;;;;;;12.73;12.23;;;21.00;99.90;;;;;;5043697;28;20554;-67
2023/06/22 02:08:20;;;;;;;11.23;10.83;;;21.00;99.90;;;;;;5035141;28;20507;-67
2023/06/22 02:10:50;;;;;;;11.73;11.23;;;21.10;99.90;;;;;;5038034;28;20474;-67
2023/06/22 02:13:18;;;;;;;12.33;11.83;;;21.00;99.90;;;;;;5033250;28;21031;-67
2023/06/22 02:15:47;;;;;;;12.40;11.90;;;21.10;99.90;;;;;;5036553;28;21106;-66
2023/06/22 02:18:14;;;;;;;12.13;11.63;;;21.10;99.90;;;;;;5040258;28;20455;-67
2023/06/22 02:20:43;;;;;;;12.40;11.87;;;21.10;99.90;;;;;;5034048;28;20474;-66
2023/06/22 02:23:10;;;;;;;11.50;11.10;;;21.10;99.90;;;;;;5042809;28;20464;-67
2023/06/22 02:25:37;;;;;;;12.20;11.70;;;21.10;99.90;;;;;;5041942;28;20966;-66
2023/06/22 02:28:04;;;;;;;12.97;12.40;;;21.20;99.90;;;;;;5039067;28;20492;-66
2023/06/22 02:30:33;;;;;;;11.50;11.00;;;21.10;99.90;;;;;;5041617;28;20465;-66
2023/06/22 02:33:00;;;;;;;14.27;13.63;;;21.10;99.90;;;;;;5038709;28;20463;-67
2023/06/22 02:35:27;;;;;;;11.90;11.50;;;21.10;99.90;;;;;;5041088;28;20543;-67
2023/06/22 02:37:55;;;;;;;11.87;11.47;;;21.10;99.90;;;;;;5043693;28;20835;-67
2023/06/22 02:40:22;;;;;;;11.87;11.47;;;21.10;99.90;;;;;;5036013;28;20464;-67
2023/06/22 02:42:49;;;;;;;12.40;11.90;;;21.10;99.90;;;;;;5032245;28;20539;-66
2023/06/22 02:45:16;;;;;;;11.53;11.13;;;21.10;99.90;;;;;;5042782;28;20496;-67
2023/06/22 02:47:42;;;;;;;11.57;11.17;;;21.30;99.90;;;;;;5032509;28;20538;-67
2023/06/22 02:50:10;;;;;;;11.50;11.10;;;21.20;99.90;;;;;;5034599;28;20908;-66
2023/06/22 02:52:39;;;;;;;12.77;12.00;;;21.20;99.90;;;;;;5041908;28;20467;-68
2023/06/22 02:55:08;;;;;;;12.50;12.03;;;21.20;99.90;;;;;;5035906;28;21264;-67
2023/06/22 02:57:35;;;;;;;11.57;11.17;;;21.30;99.90;;;;;;5043964;28;20476;-66
2023/06/22 03:00:16;;;;;;;11.70;11.30;;;21.20;99.90;;;;;;5045221;28;20467;-67
2023/06/22 03:02:43;;;;;;;11.80;11.40;;;21.20;99.90;;;;;;5042168;28;20542;-67
2023/06/22 03:05:13;;;;;;;13.67;13.07;;;21.10;99.90;;;;;;5047241;28;20733;-67
2023/06/22 03:07:41;;;;;;;11.23;10.83;;;21.20;99.90;;;;;;5043675;28;20549;-67
2023/06/22 03:10:10;;;;;;;13.97;13.30;;;21.30;99.90;;;;;;5039583;28;20543;-66
2023/06/22 03:12:38;;;;;;;11.47;11.07;;;21.30;99.90;;;;;;5045143;28;20558;-67
2023/06/22 03:15:06;;;;;;;11.60;11.20;;;21.20;99.90;;;;;;5048252;28;20515;-66
2023/06/22 03:17:34;;;;;;;12.17;11.67;;;21.10;99.90;;;;;;5043756;28;20869;-66
2023/06/22 03:20:03;;;;;;;11.63;11.13;;;21.10;99.90;;;;;;5042414;28;20470;-66
2023/06/22 03:22:30;;;;;;;10.90;10.50;;;21.20;99.90;;;;;;5040735;28;20495;-66
2023/06/22 03:24:56;;;;;;;11.33;10.93;;;21.10;99.90;;;;;;5043733;28;20562;-66
2023/06/22 03:27:24;;;;;;;10.80;10.40;;;21.10;99.90;;;;;;5045023;28;20495;-65
2023/06/22 03:29:51;;;;;;;11.10;10.70;;;21.10;99.90;;;;;;5043352;28;20460;-66
2023/06/22 03:32:18;;;;;;;11.37;10.87;;;21.10;99.90;;;;;;5040813;28;20455;-67
2023/06/22 03:34:46;;;;;;;13.30;12.60;;;21.10;99.90;;;;;;5049693;28;20467;-67
2023/06/22 03:37:15;;;;;;;11.53;11.03;;;21.10;99.90;;;;;;5040242;28;20459;-67
2023/06/22 03:39:42;;;;;;;10.90;10.50;;;21.10;99.90;;;;;;5042664;28;20697;-67
2023/06/22 03:42:09;;;;;;;15.47;14.40;;;21.10;99.90;;;;;;5043358;28;20852;-68
2023/06/22 03:44:38;;;;;;;11.90;11.43;;;21.20;99.90;;;;;;5050136;28;20459;-67
2023/06/22 03:47:07;;;;;;;11.30;10.90;;;21.20;99.90;;;;;;5042561;28;20488;-67
2023/06/22 03:49:34;;;;;;;12.93;12.33;;;21.20;99.90;;;;;;5034604;28;20875;-68
2023/06/22 03:52:01;;;;;;;11.50;11.10;;;21.20;99.90;;;;;;5048364;28;20570;-68
2023/06/22 03:54:28;;;;;;;12.90;12.30;;;21.30;99.90;;;;;;5037913;28;20546;-68
2023/06/22 03:56:55;;;;;;;11.37;10.97;;;21.40;99.90;;;;;;5049334;28;20471;-67
2023/06/22 03:59:22;;;;;;;14.80;13.90;;;21.40;99.90;;;;;;5040132;28;20526;-67
2023/06/22 04:01:50;;;;;;;14.53;13.83;;;21.30;99.90;;;;;;5040833;28;20697;-67
2023/06/22 04:04:18;;;;;;;12.10;11.60;;;21.40;99.90;;;;;;5036102;28;20951;-67
2023/06/22 04:06:45;;;;;;;12.50;12.00;;;21.30;99.90;;;;;;5043557;28;20878;-68
2023/06/22 04:09:12;;;;;;;13.10;12.53;;;21.40;99.90;;;;;;5041046;28;20897;-66
2023/06/22 04:11:39;;;;;;;12.80;12.30;;;21.50;99.90;;;;;;5041132;28;20460;-67
2023/06/22 04:14:07;;;;;;;13.00;12.50;;;21.40;99.90;;;;;;5044865;28;20455;-67
2023/06/22 04:16:34;;;;;;;13.70;13.10;;;21.50;99.90;;;;;;5039982;28;20571;-66
2023/06/22 04:19:02;;;;;;;13.40;12.83;;;21.50;99.90;;;;;;5046694;28;20816;-68
2023/06/22 04:21:30;;;;;;;13.67;12.83;;;21.40;99.90;;;;;;5030784;28;20449;-67
2023/06/22 04:23:57;;;;;;;12.80;12.30;;;21.40;99.90;;;;;;5046861;28;20455;-67
2023/06/22 04:26:24;;;;;;;12.60;12.10;;;21.30;99.90;;;;;;5042722;28;20476;-67
2023/06/22 04:28:55;;;;;;;13.77;13.17;;;21.40;99.90;;;;;;5037838;28;20492;-66
2023/06/22 04:31:31;;;;;;;16.77;15.97;;;21.50;99.90;;;;;;5028391;28;20549;-67
2023/06/22 04:34:05;;;;;;;17.90;17.00;;;21.40;99.90;;;;;;5038824;28;20958;-67
2023/06/22 04:36:38;;;;;;;19.37;18.37;;;21.20;99.90;;;;;;5030614;28;20461;-67
2023/06/22 04:39:06;;;;;;;18.30;17.40;;;21.00;99.90;;;;;;5035895;28;20519;-67
2023/06/22 04:41:41;;;;;;;18.87;17.87;;;20.90;99.90;;;;;;5047275;28;20521;-67
2023/06/22 04:44:11;;;;;;;18.07;17.17;;;20.70;99.90;;;;;;5039673;28;20559;-68
2023/06/22 04:46:39;;;;;;;18.07;17.17;;;20.70;99.90;;;;;;5039429;28;20473;-67
2023/06/22 04:49:10;;;;;;;19.30;18.20;;;20.70;99.90;;;;;;5043039;28;20918;-66
2023/06/22 04:51:41;;;;;;;16.50;15.70;;;20.60;99.90;;;;;;5041675;28;20460;-66
2023/06/22 04:54:09;;;;;;;15.70;15.00;;;20.70;99.90;;;;;;5044611;28;20553;-67
2023/06/22 04:56:36;;;;;;;15.00;14.30;;;20.60;99.90;;;;;;5037955;28;20469;-68
2023/06/22 04:59:03;;;;;;;12.63;12.13;;;20.60;99.90;;;;;;5036198;28;20963;-68
2023/06/22 05:01:32;;;;;;;11.53;11.13;;;20.60;99.90;;;;;;5041461;28;20550;-68
2023/06/22 05:04:00;;;;;;;11.77;11.27;;;20.60;99.90;;;;;;5036277;28;20905;-67
2023/06/22 05:06:28;;;;;;;12.23;11.63;;;20.70;99.90;;;;;;5035319;28;20471;-66
2023/06/22 05:08:58;;;;;;;11.70;11.00;;;20.70;99.90;;;;;;5044104;28;20507;-66
2023/06/22 05:11:25;;;;;;;13.40;12.70;;;20.80;99.90;;;;;;5035487;28;20879;-67
2023/06/22 05:13:52;;;;;;;13.57;12.80;;;20.90;99.90;;;;;;5042840;28;20472;-67
2023/06/22 05:16:23;;;;;;;11.33;10.93;;;20.90;99.90;;;;;;5035005;28;20471;-67
2023/06/22 05:18:53;;;;;;;13.20;12.50;;;21.00;99.90;;;;;;5035102;28;20894;-67
2023/06/22 05:21:24;;;;;;;13.30;12.50;;;21.20;99.90;;;;;;5044890;28;20970;-67
2023/06/22 05:23:51;;;;;;;12.40;11.90;;;21.40;99.90;;;;;;5036422;28;20492;-67
2023/06/22 05:26:20;;;;;;;12.40;11.90;;;21.50;99.90;;;;;;5036510;28;20473;-67
2023/06/22 05:28:47;;;;;;;11.93;11.47;;;21.70;99.90;;;;;;5031530;28;21021;-67
2023/06/22 05:31:14;;;;;;;12.20;11.70;;;21.70;99.90;;;;;;5037924;28;20456;-66
2023/06/22 05:33:41;;;;;;;12.20;11.70;;;21.70;99.90;;;;;;5043311;28;20567;-66
2023/06/22 05:36:09;;;;;;;12.20;11.70;;;21.70;99.90;;;;;;5036203;28;20464;-67
2023/06/22 05:38:38;;;;;;;12.60;12.10;;;21.70;99.90;;;;;;5040131;28;20966;-66
2023/06/22 05:41:06;;;;;;;12.10;11.60;;;21.80;99.90;;;;;;5042510;28;20499;-67
2023/06/22 05:43:34;;;;;;;14.00;13.30;;;22.00;99.90;;;;;;5033478;28;20754;-68
2023/06/22 05:46:02;;;;;;;14.03;13.23;;;21.80;99.90;;;;;;5035262;28;20547;-67
2023/06/22 05:48:29;;;;;;;13.13;12.63;;;22.00;99.90;;;;;;5041533;28;20488;-67
2023/06/22 05:50:57;;;;;;;13.20;12.60;;;21.90;99.90;;;;;;5045625;28;20463;-67
2023/06/22 05:53:24;;;;;;;14.77;13.90;;;21.90;99.90;;;;;;5036668;28;20464;-67
2023/06/22 05:55:51;;;;;;;15.20;14.40;;;21.70;99.90;;;;;;5046826;28;20451;-68
2023/06/22 05:58:18;;;;;;;13.00;12.50;;;21.80;99.90;;;;;;5040540;28;20838;-68
2023/06/22 06:00:47;;;;;;;14.07;13.37;;;21.90;99.90;;;;;;5036630;28;20755;-67
2023/06/22 06:03:16;;;;;;;14.30;13.27;;;22.00;99.90;;;;;;5034010;28;20472;-67
2023/06/22 06:05:44;;;;;;;13.83;13.23;;;22.10;99.90;;;;;;5039221;28;20524;-68
2023/06/22 06:08:12;;;;;;;22.30;15.33;;;22.20;99.90;;;;;;5044147;28;20491;-68
2023/06/22 06:10:39;;;;;;;14.07;13.47;;;22.40;99.90;;;;;;5031397;28;20465;-67
2023/06/22 06:13:05;;;;;;;15.63;14.73;;;22.50;99.90;;;;;;5026211;28;20860;-68
2023/06/22 06:15:33;;;;;;;13.80;13.20;;;22.50;99.90;;;;;;5037641;28;20480;-67
2023/06/22 06:18:02;;;;;;;13.53;12.97;;;22.60;99.90;;;;;;5037262;28;20552;-68
2023/06/22 06:20:29;;;;;;;13.93;13.33;;;22.70;99.90;;;;;;5046177;28;20455;-68
2023/06/22 06:22:56;;;;;;;13.50;13.00;;;22.70;99.90;;;;;;5041875;28;20970;-67
2023/06/22 06:25:24;;;;;;;13.50;13.00;;;22.70;99.90;;;;;;5040529;28;20472;-68
2023/06/22 06:27:54;;;;;;;15.37;14.53;;;22.80;99.90;;;;;;5035994;28;20463;-68
2023/06/22 06:30:22;;;;;;;13.90;13.30;;;22.60;99.90;;;;;;5038132;28;20460;-68
2023/06/22 06:32:50;;;;;;;13.00;12.50;;;22.50;99.90;;;;;;5038101;28;20491;-67
2023/06/22 06:35:18;;;;;;;16.10;15.03;;;22.60;99.90;;;;;;5036681;28;20824;-68
2023/06/22 06:37:49;;;;;;;17.47;16.33;;;22.40;99.90;;;;;;5039177;28;20829;-67
2023/06/22 06:40:18;;;;;;;20.87;19.53;;;22.30;99.90;;;;;;5034033;28;20467;-67
2023/06/22 06:42:46;;;;;;;22.93;21.30;;;21.90;99.90;;;;;;5039178;28;20483;-66
2023/06/22 06:45:16;;;;;;;24.67;22.97;;;21.70;99.90;;;;;;5034434;28;20952;-65
2023/06/22 06:47:42;;;;;;;21.30;20.10;;;21.50;99.90;;;;;;5032573;28;20464;-66
2023/06/22 06:50:10;;;;;;;20.23;19.00;;;21.30;99.90;;;;;;5034853;28;20917;-66
2023/06/22 06:52:38;;;;;;;19.83;18.60;;;21.20;99.90;;;;;;5035201;28;20551;-66
2023/06/22 06:55:08;;;;;;;15.03;14.33;;;21.00;99.90;;;;;;5039322;28;20456;-65
2023/06/22 06:57:37;;;;;;;14.10;13.50;;;21.00;99.90;;;;;;5036191;28;20998;-67
2023/06/22 07:00:09;;;;;;;12.77;12.20;;;21.10;99.90;;;;;;5033888;28;20837;-66
2023/06/22 07:02:36;;;;;;;12.97;12.40;;;21.30;99.90;;;;;;5032001;28;20468;-65
2023/06/22 07:05:04;;;;;;;15.47;14.67;;;21.40;99.90;;;;;;5032516;28;20722;-66
2023/06/22 07:07:31;;;;;;;13.93;12.93;;;21.40;99.90;;;;;;5035479;28;20905;-67
2023/06/22 07:10:00;;;;;;;13.63;12.90;;;21.60;99.90;;;;;;5031641;28;20497;-67
2023/06/22 07:12:27;;;;;;;13.83;13.13;;;21.70;99.90;;;;;;5034308;28;20472;-68
2023/06/22 07:14:54;;;;;;;12.40;11.90;;;22.00;99.90;;;;;;5036724;28;20472;-68
2023/06/22 07:17:21;;;;;;;14.03;13.23;;;22.30;99.90;;;;;;5034051;28;20494;-67
2023/06/22 07:19:48;;;;;;;14.27;13.40;;;22.40;99.90;;;;;;5037229;28;20727;-67
2023/06/22 07:22:15;;;;;;;14.57;13.87;;;22.50;99.90;;;;;;5035575;28;21004;-68
2023/06/22 07:24:42;;;;;;;16.10;15.10;;;22.70;99.90;;;;;;5042483;28;20722;-67
2023/06/22 07:27:12;;;;;;;17.53;15.70;;;22.90;99.90;;;;;;5042631;28;20468;-67
2023/06/22 07:29:40;;;;;;;14.67;13.97;;;22.90;99.90;;;;;;5038196;28;20484;-67
2023/06/22 07:32:08;;;;;;;14.70;14.00;;;23.20;99.90;;;;;;5045628;28;20939;-68
2023/06/22 07:34:36;;;;;;;15.90;15.00;;;23.70;99.90;;;;;;5034169;28;20460;-67
2023/06/22 07:37:04;;;;;;;16.37;15.40;;;23.90;99.90;;;;;;5035660;28;20471;-68
2023/06/22 07:39:31;;;;;;;14.00;13.40;;;24.00;99.90;;;;;;5043876;28;20459;-67
2023/06/22 07:41:58;;;;;;;16.17;15.23;;;24.10;99.90;;;;;;5037392;28;20467;-67
2023/06/22 07:44:26;;;;;;;16.03;14.97;;;24.50;99.90;;;;;;5032155;28;20460;-68
2023/06/22 07:46:53;;;;;;;16.17;15.30;;;24.40;99.90;;;;;;5039298;28;20651;-68
2023/06/22 07:49:20;;;;;;;13.63;13.03;;;24.70;99.90;;;;;;5042728;28;20902;-67
2023/06/22 07:51:47;;;;;;;17.40;16.30;;;24.80;99.90;;;;;;5028533;28;20847;-68
2023/06/22 07:54:15;;;;;;;15.47;14.73;;;25.00;99.90;;;;;;5039956;28;21067;-67
2023/06/22 07:56:42;;;;;;;16.50;15.07;;;25.30;99.90;;;;;;5031159;28;20500;-67
2023/06/22 07:59:09;;;;;;;18.50;17.33;;;25.10;99.90;;;;;;5038701;28;20533;-67
2023/06/22 08:01:37;;;;;;;17.23;16.27;;;25.20;99.90;;;;;;5042330;28;20459;-68
2023/06/22 08:04:06;;;;;;;15.20;14.50;;;25.30;99.90;;;;;;5039952;28;20564;-68
2023/06/22 08:06:33;;;;;;;20.77;18.10;;;25.50;99.90;;;;;;5028507;28;20457;-67
2023/06/22 08:09:01;;;;;;;16.73;15.90;;;26.40;99.90;;;;;;5036186;28;20483;-67
2023/06/22 08:11:28;;;;;;;16.50;15.70;;;26.50;99.90;;;;;;5033736;28;20457;-68
2023/06/22 08:13:57;;;;;;;16.00;15.30;;;27.00;99.90;;;;;;5038133;28;20469;-67
2023/06/22 08:16:25;;;;;;;19.53;18.33;;;26.70;99.90;;;;;;5036651;28;20492;-68
2023/06/22 08:18:53;;;;;;;15.40;14.70;;;26.60;99.90;;;;;;5040353;28;20464;-67
2023/06/22 08:21:20;;;;;;;16.83;16.00;;;26.50;99.90;;;;;;5026891;28;20487;-67
2023/06/22 08:23:46;;;;;;;16.70;15.90;;;27.00;99.90;;;;;;5036307;28;20468;-67
2023/06/22 08:26:13;;;;;;;15.73;15.03;;;27.10;99.90;;;;;;5038024;28;20464;-67
2023/06/22 08:28:40;;;;;;;16.20;15.40;;;27.50;99.90;;;;;;5039237;28;20669;-67
2023/06/22 08:31:08;;;;;;;17.23;16.37;;;27.60;99.90;;;;;;5041159;28;20534;-67
2023/06/22 08:33:35;;;;;;;16.80;16.00;;;27.50;99.90;;;;;;5032461;28;20506;-68
2023/06/22 08:36:03;;;;;;;16.40;15.60;;;27.60;99.90;;;;;;5033156;28;20472;-68
2023/06/22 08:38:29;;;;;;;17.47;16.57;;;27.70;99.90;;;;;;5031617;28;20465;-69
2023/06/22 08:40:56;;;;;;;17.00;16.17;;;27.70;99.90;;;;;;5034460;28;20475;-69
2023/06/22 08:43:23;;;;;;;18.90;17.80;;;28.10;99.90;;;;;;5036613;28;20491;-69
2023/06/22 08:45:50;;;;;;;18.93;17.63;;;28.50;99.90;;;;;;5032193;28;20472;-69
2023/06/22 08:48:17;;;;;;;18.97;17.80;;;28.40;99.90;;;;;;5033522;28;20801;-69
2023/06/22 08:50:44;;;;;;;20.10;18.77;;;28.80;99.90;;;;;;5033218;28;20489;-69
2023/06/22 08:53:13;;;;;;;17.23;16.43;;;29.20;99.90;;;;;;5035987;28;20463;-69
2023/06/22 08:55:39;;;;;;;19.53;18.23;;;29.70;99.90;;;;;;5045506;28;20714;-68
2023/06/22 08:58:06;;;;;;;17.70;16.80;;;30.10;99.90;;;;;;5039481;28;20452;-68
2023/06/22 09:00:34;;;;;;;17.37;16.47;;;30.40;99.90;;;;;;5038394;28;20456;-68
2023/06/22 09:03:01;;;;;;;16.50;15.80;;;30.10;99.90;;;;;;5037936;28;20459;-69
2023/06/22 09:05:29;;;;;;;17.80;16.90;;;29.80;99.90;;;;;;5040955;28;20966;-69
2023/06/22 09:07:58;;;;;;;17.13;16.33;;;30.50;99.90;;;;;;5038577;28;20471;-69
2023/06/22 09:10:26;;;;;;;17.47;16.67;;;30.70;99.90;;;;;;5042069;28;20491;-69
2023/06/22 09:12:53;;;;;;;17.50;16.70;;;30.50;99.90;;;;;;5040516;28;20471;-68
2023/06/22 09:15:20;;;;;;;18.20;17.30;;;30.50;99.90;;;;;;5038543;28;20562;-67
2023/06/22 09:17:47;;;;;;;17.73;16.83;;;30.50;99.90;;;;;;5042642;28;20539;-68
2023/06/22 09:20:14;;;;;;;18.27;16.90;;;31.10;99.90;;;;;;5033211;28;20471;-67
2023/06/22 09:22:41;;;;;;;19.63;18.37;;;31.60;99.90;;;;;;5029812;28;21339;-67
2023/06/22 09:25:08;;;;;;;18.60;17.70;;;31.60;99.90;;;;;;5036356;28;20467;-68
2023/06/22 09:27:37;;;;;;;18.63;17.63;;;32.30;99.90;;;;;;5036055;28;20465;-68
2023/06/22 09:30:05;;;;;;;18.33;17.43;;;32.80;99.90;;;;;;5036322;28;20481;-68
2023/06/22 09:32:32;;;;;;;19.17;18.17;;;32.80;99.90;;;;;;5044378;28;20525;-66
2023/06/22 09:34:59;;;;;;;17.10;16.40;;;32.40;99.90;;;;;;5037992;28;20659;-68
2023/06/22 09:37:26;;;;;;;18.77;17.80;;;32.20;99.90;;;;;;5037361;28;20453;-67
2023/06/22 09:39:53;;;;;;;17.37;16.60;;;31.90;99.90;;;;;;5041004;28;20467;-69
2023/06/22 09:42:20;;;;;;;16.80;16.10;;;31.90;99.90;;;;;;5031353;28;20484;-68
2023/06/22 09:44:49;;;;;;;19.10;17.90;;;32.30;99.90;;;;;;5037856;28;21042;-67
2023/06/22 09:47:15;;;;;;;17.87;17.07;;;32.80;99.90;;;;;;5035867;28;20492;-68
2023/06/22 09:49:43;;;;;;;17.10;16.30;;;32.60;99.90;;;;;;5034460;28;21211;-69
2023/06/22 09:52:11;;;;;;;18.10;17.30;;;31.70;99.90;;;;;;5036468;28;20526;-67
2023/06/22 09:54:38;;;;;;;17.80;17.00;;;31.80;99.90;;;;;;5041207;28;20521;-68
2023/06/22 09:57:06;;;;;;;16.87;16.17;;;31.60;99.90;;;;;;5037519;28;20958;-69
2023/06/22 09:59:33;;;;;;;18.83;17.83;;;31.90;99.90;;;;;;5036943;28;20460;-69
2023/06/22 10:02:01;;;;;;;17.10;16.33;;;31.40;99.90;;;;;;5040225;28;20466;-69
2023/06/22 10:04:29;;;;;;;16.70;16.00;;;30.70;99.90;;;;;;5035461;28;20469;-69
2023/06/22 10:06:56;;;;;;;17.23;16.43;;;30.80;99.90;;;;;;5030768;28;20974;-67
2023/06/22 10:09:24;;;;;;;17.23;16.47;;;30.30;99.90;;;;;;5031136;28;20492;-68
2023/06/22 10:11:51;;;;;;;17.10;16.10;;;30.00;99.90;;;;;;5035751;28;20467;-66
2023/06/22 10:14:17;;;;;;;16.50;15.80;;;29.50;99.90;;;;;;5040309;28;20459;-68
2023/06/22 10:16:44;;;;;;;16.03;15.33;;;29.80;99.90;;;;;;5030375;28;20504;-67
2023/06/22 10:19:12;;;;;;;15.57;14.93;;;29.80;99.90;;;;;;5036237;28;21223;-67
2023/06/22 10:21:39;;;;;;;15.50;14.87;;;29.80;99.90;;;;;;5030743;28;20975;-66
2023/06/22 10:24:07;;;;;;;15.03;14.43;;;29.70;99.90;;;;;;5037579;28;20467;-69
2023/06/22 10:26:34;;;;;;;14.80;14.20;;;29.70;99.90;;;;;;5029167;28;20472;-68
2023/06/22 10:29:00;;;;;;;15.40;14.80;;;29.70;99.90;;;;;;5036855;28;20460;-68
2023/06/22 10:31:27;;;;;;;16.10;15.40;;;29.90;99.90;;;;;;5036846;28;20459;-69
2023/06/22 10:33:55;;;;;;;19.77;18.77;;;29.90;99.90;;;;;;5035994;28;20510;-67
2023/06/22 10:36:23;;;;;;;25.13;23.43;;;29.70;99.90;;;;;;5036384;28;20495;-67
2023/06/22 10:38:50;;;;;;;28.50;26.30;;;29.10;99.90;;;;;;5039063;28;20452;-68
2023/06/22 10:41:17;;;;;;;31.00;28.40;;;28.50;99.90;;;;;;5040378;28;20981;-66
2023/06/22 10:43:44;;;;;;;30.07;27.57;;;28.00;99.90;;;;;;5033346;28;20483;-67
2023/06/22 10:46:11;;;;;;;30.67;28.07;;;27.40;99.90;;;;;;5035696;28;20468;-68
2023/06/22 10:48:37;;;;;;;31.17;28.47;;;26.90;99.90;;;;;;5030437;28;20837;-67
2023/06/22 10:51:05;;;;;;;30.70;27.80;;;26.50;99.90;;;;;;5039696;28;20495;-66
2023/06/22 10:53:33;;;;;;;29.30;26.60;;;26.20;99.90;;;;;;5030914;28;20475;-65
2023/06/22 10:56:01;;;;;;;28.30;25.70;;;26.00;99.90;;;;;;5037970;28;21087;-67
2023/06/22 10:58:28;;;;;;;28.23;25.73;;;25.70;99.90;;;;;;5033605;28;20888;-67
2023/06/22 11:00:55;;;;;;;28.20;25.70;;;25.40;99.90;;;;;;5028180;28;20457;-68
2023/06/22 11:03:22;;;;;;;27.53;25.13;;;24.90;99.90;;;;;;5036716;28;20593;-66
2023/06/22 11:05:49;;;;;;;25.47;23.27;;;24.60;99.90;;;;;;5030766;28;20475;-66
2023/06/22 11:08:16;;;;;;;24.93;22.93;;;24.40;99.90;;;;;;5029447;28;21032;-67
2023/06/22 11:10:45;;;;;;;22.90;21.20;;;24.20;99.90;;;;;;5033269;28;20863;-67
2023/06/22 11:13:12;;;;;;;22.50;20.90;;;24.00;99.90;;;;;;5041113;28;20510;-66
2023/06/22 11:15:39;;;;;;;22.63;21.10;;;23.50;99.90;;;;;;5030873;28;21044;-67
2023/06/22 11:18:06;;;;;;;22.80;20.63;;;23.30;99.90;;;;;;5036010;28;21429;-67
2023/06/22 11:20:38;;;;;;;21.03;19.73;;;23.20;99.90;;;;;;5035712;28;20468;-66
2023/06/22 11:23:06;;;;;;;19.73;18.53;;;23.00;99.90;;;;;;5038584;28;20972;-66
2023/06/22 11:25:34;;;;;;;18.90;17.80;;;22.90;99.90;;;;;;5040799;28;20468;-67
2023/06/22 11:28:04;;;;;;;18.03;17.03;;;22.90;99.90;;;;;;5037721;28;20541;-68
2023/06/22 11:30:31;;;;;;;20.33;18.90;;;22.90;99.90;;;;;;5040089;28;20502;-67
2023/06/22 11:32:59;;;;;;;18.53;17.40;;;22.90;99.90;;;;;;5034443;28;20769;-68
2023/06/22 11:35:27;;;;;;;17.87;16.97;;;22.80;99.90;;;;;;5028762;28;20530;-67
2023/06/22 11:37:54;;;;;;;18.40;17.30;;;23.00;99.90;;;;;;5041536;28;20817;-68
2023/06/22 11:40:22;;;;;;;16.50;15.60;;;23.00;99.90;;;;;;5033681;28;21021;-67
2023/06/22 11:42:49;;;;;;;16.07;15.27;;;23.10;99.90;;;;;;5042589;28;20870;-67
2023/06/22 11:45:18;;;;;;;16.43;15.13;;;23.40;99.90;;;;;;5039921;28;20456;-67
2023/06/22 11:47:45;;;;;;;16.80;15.90;;;23.50;99.90;;;;;;5030575;28;20455;-68
2023/06/22 11:50:12;;;;;;;16.90;15.70;;;23.50;99.90;;;;;;5034991;28;20510;-67
2023/06/22 11:52:38;;;;;;;13.27;12.57;;;24.00;99.90;;;;;;5039042;28;20464;-66
2023/06/22 11:55:07;;;;;;;11.93;11.23;;;24.50;99.90;;;;;;5037668;28;20547;-65
2023/06/22 11:57:36;;;;;;;12.57;11.93;;;25.10;99.90;;;;;;5033884;28;21217;-67
2023/06/22 12:00:13;;;;;;;13.60;13.00;;;25.30;99.90;;;;;;5035951;28;20465;-66
2023/06/22 12:02:41;;;;;;;14.47;13.77;;;25.50;99.90;;;;;;5040520;28;20472;-67
2023/06/22 12:05:09;;;;;;;19.57;18.10;;;25.40;99.90;;;;;;5041869;28;20471;-66
2023/06/22 12:07:35;;;;;;;22.73;21.10;;;25.60;99.90;;;;;;5036647;28;20466;-67
2023/06/22 12:10:03;;;;;;;20.00;18.67;;;25.60;99.90;;;;;;5041993;28;20480;-67
2023/06/22 12:12:30;;;;;;;18.57;17.47;;;25.30;99.90;;;;;;5042585;28;20468;-66
2023/06/22 12:14:57;;;;;;;22.40;20.90;;;25.50;99.90;;;;;;5032988;28;20861;-68
2023/06/22 12:17:23;;;;;;;18.90;17.70;;;25.60;99.90;;;;;;5036361;28;21030;-67
2023/06/22 12:19:51;;;;;;;19.07;17.93;;;25.60;99.90;;;;;;5034544;28;20464;-66
2023/06/22 12:22:19;;;;;;;19.27;18.07;;;25.50;99.90;;;;;;5040704;28;20781;-67
2023/06/22 12:24:45;;;;;;;17.97;16.97;;;25.50;99.90;;;;;;5029467;28;21230;-67
2023/06/22 12:27:16;;;;;;;17.83;16.83;;;25.60;99.90;;;;;;5036672;28;20990;-67
2023/06/22 12:29:43;;;;;;;21.27;19.70;;;25.30;99.90;;;;;;5031878;28;20468;-67
2023/06/22 12:32:12;;;;;;;17.43;16.33;;;25.20;99.90;;;;;;5039215;28;20848;-67